createdAt,value
2022-11-25T00:00:00.319Z,80
2022-11-25T00:05:00.253Z,80
2022-11-25T00:10:00.174Z,80
2022-11-25T00:15:00.280Z,80
2022-11-25T00:20:00.219Z,80
2022-11-25T00:25:00.262Z,80
2022-11-25T00:30:00.250Z,80
2022-11-25T00:35:00.214Z,80
2022-11-25T00:40:00.417Z,80
2022-11-25T00:45:00.302Z,80
2022-11-25T00:50:00.178Z,80
2022-11-25T00:55:00.186Z,80
2022-11-25T01:00:00.315Z,80
2022-11-25T01:05:00.245Z,80
2022-11-25T01:10:00.237Z,80
2022-11-25T01:15:00.864Z,80
2022-11-25T01:20:00.208Z,80
2022-11-25T01:25:00.256Z,80
2022-11-25T01:30:00.175Z,81
2022-11-25T01:35:00.202Z,81
2022-11-25T01:40:00.221Z,81
2022-11-25T01:45:00.238Z,81
2022-11-25T01:50:00.180Z,81
2022-11-25T01:55:00.253Z,81
2022-11-25T02:00:00.296Z,81
2022-11-25T02:05:00.245Z,81
2022-11-25T02:10:00.168Z,81
2022-11-25T02:15:00.242Z,81
2022-11-25T02:20:00.204Z,81
2022-11-25T02:25:00.280Z,81
2022-11-25T02:30:00.220Z,81
2022-11-25T02:35:00.195Z,81
2022-11-25T02:40:00.265Z,80
2022-11-25T02:45:00.186Z,80
2022-11-25T02:50:00.166Z,80
2022-11-25T02:55:00.268Z,80
2022-11-25T03:00:00.290Z,80
2022-11-25T03:05:00.188Z,80
2022-11-25T03:10:00.256Z,80
2022-11-25T03:15:00.189Z,80
2022-11-25T03:20:00.246Z,80
2022-11-25T03:25:00.248Z,80
2022-11-25T03:30:00.246Z,80
2022-11-25T03:35:00.237Z,80
2022-11-25T03:40:00.290Z,80
2022-11-25T03:45:00.155Z,80
2022-11-25T03:50:00.305Z,80
2022-11-25T03:55:00.270Z,80
2022-11-25T04:00:00.350Z,80
2022-11-25T04:05:00.299Z,80
2022-11-25T04:10:00.255Z,80
2022-11-25T04:15:00.238Z,80
2022-11-25T04:20:00.310Z,80
2022-11-25T04:25:00.311Z,80
2022-11-25T04:30:00.286Z,80
2022-11-25T04:35:00.223Z,80
2022-11-25T04:40:00.308Z,80
2022-11-25T04:45:22.046Z,80
2022-11-25T04:50:00.257Z,80
2022-11-25T04:55:00.254Z,80
2022-11-25T05:00:00.342Z,80
2022-11-25T05:05:00.244Z,80
2022-11-25T05:10:00.239Z,81
2022-11-25T05:15:00.288Z,81
2022-11-25T05:20:00.292Z,81
2022-11-25T05:25:00.389Z,81
2022-11-25T05:30:00.269Z,81
2022-11-25T05:35:00.223Z,82
2022-11-25T05:40:00.324Z,82
2022-11-25T05:45:00.260Z,82
2022-11-25T05:50:00.255Z,82
2022-11-25T05:55:00.255Z,82
2022-11-25T06:00:00.338Z,82
2022-11-25T06:05:00.279Z,82
2022-11-25T06:10:03.290Z,82
2022-11-25T06:15:00.311Z,82
2022-11-25T06:20:00.328Z,82
2022-11-25T06:25:03.507Z,82
2022-11-25T06:30:00.275Z,82
2022-11-25T06:35:00.235Z,82
2022-11-25T06:40:00.320Z,82
2022-11-25T06:45:00.260Z,82
2022-11-25T06:50:00.255Z,82
2022-11-25T06:55:00.291Z,82
2022-11-25T07:00:00.324Z,82
2022-11-25T07:05:00.235Z,82
2022-11-25T07:10:00.254Z,82
2022-11-25T07:15:00.305Z,82
2022-11-25T07:20:00.307Z,83
2022-11-25T07:25:00.301Z,82
2022-11-25T07:31:09.344Z,83
2022-11-25T07:35:00.296Z,83
2022-11-25T07:40:00.305Z,83
2022-11-25T07:45:00.275Z,83
2022-11-25T07:50:00.231Z,83
2022-11-25T07:55:00.252Z,83
2022-11-25T08:00:00.327Z,83
2022-11-25T08:05:00.414Z,83
2022-11-25T08:10:00.216Z,83
2022-11-25T08:15:00.240Z,83
2022-11-25T08:20:00.295Z,83
2022-11-25T08:25:00.210Z,83
2022-11-25T08:30:00.270Z,83
2022-11-25T08:35:00.277Z,83
2022-11-25T08:40:00.892Z,83
2022-11-25T08:45:00.219Z,83
2022-11-25T08:50:00.211Z,84
2022-11-25T08:55:00.297Z,84
2022-11-25T09:00:00.330Z,84
2022-11-25T09:05:00.281Z,84
2022-11-25T09:10:00.236Z,84
2022-11-25T09:15:00.272Z,84
2022-11-25T09:20:00.303Z,84
2022-11-25T09:25:00.288Z,84
2022-11-25T09:30:00.284Z,85
2022-11-25T09:35:00.265Z,84
2022-11-25T09:40:00.317Z,84
2022-11-25T09:45:00.247Z,84
2022-11-25T09:50:00.290Z,84
2022-11-25T09:55:00.244Z,84
2022-11-25T10:00:00.379Z,84
2022-11-25T10:05:00.237Z,84
2022-11-25T10:10:00.210Z,84
2022-11-25T10:15:00.253Z,85
2022-11-25T10:20:00.332Z,85
2022-11-25T10:25:00.276Z,85
2022-11-25T10:30:00.312Z,85
2022-11-25T10:35:00.312Z,84
2022-11-25T10:40:00.302Z,84
2022-11-25T10:45:00.269Z,84
2022-11-25T10:50:00.303Z,84
2022-11-25T10:55:00.281Z,84
2022-11-25T11:00:00.335Z,84
2022-11-25T11:05:00.308Z,83
2022-11-25T11:10:00.323Z,82
2022-11-25T11:15:00.239Z,82
2022-11-25T11:20:00.256Z,82
2022-11-25T11:25:00.290Z,81
2022-11-25T11:30:00.312Z,81
2022-11-25T11:35:00.284Z,80
2022-11-25T11:40:00.445Z,80
2022-11-25T11:45:00.262Z,80
2022-11-25T11:50:00.318Z,80
2022-11-25T11:55:00.643Z,80
2022-11-25T12:00:00.326Z,80
2022-11-25T12:05:00.305Z,80
2022-11-25T12:10:00.233Z,80
2022-11-25T12:15:00.303Z,80
2022-11-25T12:20:00.352Z,80
2022-11-25T12:25:00.285Z,80
2022-11-25T12:30:00.337Z,80
2022-11-25T12:35:00.318Z,80
2022-11-25T12:40:00.364Z,79
2022-11-25T12:45:00.264Z,79
2022-11-25T12:50:00.279Z,79
2022-11-25T12:55:00.299Z,79
2022-11-25T13:00:24.950Z,78
2022-11-25T13:05:18.570Z,78
2022-11-25T13:10:00.276Z,78
2022-11-25T13:15:00.966Z,78
2022-11-25T13:20:00.300Z,78
2022-11-25T13:25:00.239Z,78
2022-11-25T13:30:00.378Z,78
2022-11-25T13:35:00.271Z,78
2022-11-25T13:40:00.273Z,78
2022-11-25T13:45:00.346Z,78
2022-11-25T13:50:00.276Z,78
2022-11-25T13:55:00.270Z,78
2022-11-25T14:00:00.324Z,78
2022-11-25T14:05:00.292Z,78
2022-11-25T14:10:00.280Z,78
2022-11-25T14:15:00.261Z,78
2022-11-25T14:20:00.667Z,78
2022-11-25T14:25:00.246Z,78
2022-11-25T14:30:00.295Z,78
2022-11-25T14:35:00.307Z,78
2022-11-25T14:40:00.235Z,78
2022-11-25T14:45:00.278Z,78
2022-11-25T14:50:26.814Z,78
2022-11-25T14:55:00.271Z,77
2022-11-25T15:00:00.416Z,77
2022-11-25T15:05:00.260Z,77
2022-11-25T15:10:00.302Z,77
2022-11-25T15:15:00.270Z,77
2022-11-25T15:20:00.305Z,77
2022-11-25T15:25:00.267Z,77
2022-11-25T15:30:00.337Z,77
2022-11-25T15:35:00.277Z,77
2022-11-25T15:40:00.450Z,78
2022-11-25T15:45:05.149Z,78
2022-11-25T15:50:00.392Z,78
2022-11-25T15:55:00.288Z,78
2022-11-25T16:00:00.452Z,78
2022-11-25T16:05:03.443Z,78
2022-11-25T16:10:00.294Z,78
2022-11-25T16:15:00.250Z,78
2022-11-25T16:20:00.354Z,78
2022-11-25T16:25:02.660Z,78
2022-11-25T16:30:00.267Z,78
2022-11-25T16:35:00.306Z,78
2022-11-25T16:40:00.343Z,78
2022-11-25T16:45:00.274Z,78
2022-11-25T16:50:00.310Z,78
2022-11-25T16:55:00.232Z,78
2022-11-25T17:00:00.390Z,78
2022-11-25T17:05:00.312Z,78
2022-11-25T17:10:00.288Z,78
2022-11-25T17:15:00.558Z,78
2022-11-25T17:20:00.351Z,79
2022-11-25T17:25:00.262Z,79
2022-11-25T17:30:00.290Z,79
2022-11-25T17:35:00.289Z,79
2022-11-25T17:40:00.331Z,79
2022-11-25T17:45:00.285Z,79
2022-11-25T17:50:00.288Z,79
2022-11-25T17:55:00.255Z,80
2022-11-25T18:00:00.404Z,80
2022-11-25T18:05:00.342Z,80
2022-11-25T18:10:00.296Z,80
2022-11-25T18:15:00.318Z,80
2022-11-25T18:20:00.266Z,80
2022-11-25T18:25:03.103Z,79
2022-11-25T18:30:00.238Z,80
2022-11-25T18:35:00.264Z,80
2022-11-25T18:40:00.344Z,80
2022-11-25T18:45:00.241Z,80
2022-11-25T18:50:00.204Z,80
2022-11-25T18:55:00.282Z,80
2022-11-25T19:00:24.778Z,80
2022-11-25T19:05:00.256Z,80
2022-11-25T19:10:00.324Z,80
2022-11-25T19:15:00.270Z,80
2022-11-25T19:20:00.295Z,81
2022-11-25T19:25:00.281Z,81
2022-11-25T19:30:00.332Z,81
2022-11-25T19:35:00.259Z,81
2022-11-25T19:40:00.259Z,81
2022-11-25T19:45:00.271Z,81
2022-11-25T19:50:00.312Z,81
2022-11-25T19:55:00.227Z,81
2022-11-25T20:00:00.284Z,82
2022-11-25T20:05:00.269Z,81
2022-11-25T20:10:00.223Z,81
2022-11-25T20:15:00.232Z,81
2022-11-25T20:20:00.345Z,82
2022-11-25T20:25:00.295Z,82
2022-11-25T20:30:00.292Z,81
2022-11-25T20:35:00.280Z,81
2022-11-25T20:40:00.381Z,81
2022-11-25T20:45:00.269Z,81
2022-11-25T20:50:00.274Z,81
2022-11-25T20:55:00.269Z,82
2022-11-25T21:00:00.385Z,82
2022-11-25T21:05:00.312Z,82
2022-11-25T21:10:00.299Z,82
2022-11-25T21:15:00.264Z,82
2022-11-25T21:20:00.268Z,82
2022-11-25T21:25:00.273Z,82
2022-11-25T21:30:00.274Z,82
2022-11-25T21:35:00.292Z,82
2022-11-25T21:40:00.285Z,82
2022-11-25T21:45:00.285Z,82
2022-11-25T21:50:00.235Z,82
2022-11-25T21:55:00.278Z,82
2022-11-25T22:00:00.302Z,82
2022-11-25T22:05:00.232Z,82
2022-11-25T22:10:00.243Z,82
2022-11-25T22:15:00.143Z,82
2022-11-25T22:20:00.283Z,82
2022-11-25T22:25:00.234Z,82
2022-11-25T22:30:00.300Z,82
2022-11-25T22:35:00.202Z,82
2022-11-25T22:40:00.327Z,82
2022-11-25T22:45:00.244Z,82
2022-11-25T22:50:00.259Z,82
2022-11-25T22:55:00.281Z,82
2022-11-25T23:00:00.285Z,82
2022-11-25T23:05:00.239Z,82
2022-11-25T23:10:00.259Z,82
2022-11-25T23:15:00.178Z,82
2022-11-25T23:20:00.331Z,82
2022-11-25T23:25:00.205Z,82
2022-11-25T23:30:00.273Z,82
2022-11-25T23:35:00.233Z,82
2022-11-25T23:40:00.314Z,82
2022-11-25T23:45:00.228Z,82
2022-11-25T23:50:00.225Z,82
2022-11-25T23:55:00.251Z,82
